sensor_id;sensor_type;location;lat;lon;timestamp;temperature;humidity
19538;DHT22;9914;51.008;4.300;2022-12-29T00:01:51;12.20;99.90
19538;DHT22;9914;51.008;4.300;2022-12-29T00:04:18;12.20;99.90
19538;DHT22;9914;51.008;4.300;2022-12-29T00:06:43;12.20;99.90
19538;DHT22;9914;51.008;4.300;2022-12-29T00:09:11;12.20;99.90
19538;DHT22;9914;51.008;4.300;2022-12-29T00:11:37;12.20;99.90
19538;DHT22;9914;51.008;4.300;2022-12-29T00:14:03;12.20;99.90
19538;DHT22;9914;51.008;4.300;2022-12-29T00:16:47;12.20;99.90
19538;DHT22;9914;51.008;4.300;2022-12-29T00:19:12;12.20;99.90
19538;DHT22;9914;51.008;4.300;2022-12-29T00:21:58;12.20;99.90
19538;DHT22;9914;51.008;4.300;2022-12-29T00:24:43;12.30;99.90
19538;DHT22;9914;51.008;4.300;2022-12-29T00:27:29;12.30;99.90
19538;DHT22;9914;51.008;4.300;2022-12-29T00:30:16;12.20;99.90
19538;DHT22;9914;51.008;4.300;2022-12-29T00:33:00;12.30;99.90
19538;DHT22;9914;51.008;4.300;2022-12-29T00:35:53;12.40;99.90
19538;DHT22;9914;51.008;4.300;2022-12-29T00:38:21;12.40;99.90
19538;DHT22;9914;51.008;4.300;2022-12-29T00:41:05;12.30;99.90
19538;DHT22;9914;51.008;4.300;2022-12-29T00:43:49;12.40;99.90
19538;DHT22;9914;51.008;4.300;2022-12-29T00:46:37;12.40;99.90
19538;DHT22;9914;51.008;4.300;2022-12-29T00:49:04;12.40;99.90
19538;DHT22;9914;51.008;4.300;2022-12-29T00:51:49;12.40;99.90
19538;DHT22;9914;51.008;4.300;2022-12-29T00:54:15;12.40;99.90
19538;DHT22;9914;51.008;4.300;2022-12-29T00:56:41;12.40;99.90
19538;DHT22;9914;51.008;4.300;2022-12-29T00:59:09;12.50;99.90
19538;DHT22;9914;51.008;4.300;2022-12-29T01:01:36;12.50;99.90
19538;DHT22;9914;51.008;4.300;2022-12-29T01:04:01;12.50;99.90
19538;DHT22;9914;51.008;4.300;2022-12-29T01:06:27;12.50;99.90
19538;DHT22;9914;51.008;4.300;2022-12-29T01:08:53;12.50;99.90
19538;DHT22;9914;51.008;4.300;2022-12-29T01:11:40;12.50;99.90
19538;DHT22;9914;51.008;4.300;2022-12-29T01:14:06;12.50;99.90
19538;DHT22;9914;51.008;4.300;2022-12-29T01:16:32;12.50;99.90
19538;DHT22;9914;51.008;4.300;2022-12-29T01:18:58;12.50;99.90
19538;DHT22;9914;51.008;4.300;2022-12-29T01:21:24;12.60;99.90
19538;DHT22;9914;51.008;4.300;2022-12-29T01:23:50;12.60;99.90
19538;DHT22;9914;51.008;4.300;2022-12-29T01:26:17;12.40;99.90
19538;DHT22;9914;51.008;4.300;2022-12-29T01:28:43;12.30;99.90
19538;DHT22;9914;51.008;4.300;2022-12-29T01:31:10;12.20;99.90
19538;DHT22;9914;51.008;4.300;2022-12-29T01:33:36;12.10;99.90
19538;DHT22;9914;51.008;4.300;2022-12-29T01:36:03;12.20;99.90
19538;DHT22;9914;51.008;4.300;2022-12-29T01:38:28;12.10;99.90
19538;DHT22;9914;51.008;4.300;2022-12-29T01:40:54;12.20;99.90
19538;DHT22;9914;51.008;4.300;2022-12-29T01:43:20;12.20;99.90
19538;DHT22;9914;51.008;4.300;2022-12-29T01:45:51;12.20;99.90
19538;DHT22;9914;51.008;4.300;2022-12-29T01:48:19;12.10;99.90
19538;DHT22;9914;51.008;4.300;2022-12-29T01:50:55;12.20;99.90
19538;DHT22;9914;51.008;4.300;2022-12-29T01:53:31;12.20;99.90
19538;DHT22;9914;51.008;4.300;2022-12-29T01:56:02;12.20;99.90
19538;DHT22;9914;51.008;4.300;2022-12-29T01:58:34;12.10;99.90
19538;DHT22;9914;51.008;4.300;2022-12-29T02:01:01;12.10;99.90
19538;DHT22;9914;51.008;4.300;2022-12-29T02:03:28;12.00;99.90
19538;DHT22;9914;51.008;4.300;2022-12-29T02:06:11;12.00;99.90
19538;DHT22;9914;51.008;4.300;2022-12-29T02:08:38;12.10;99.90
19538;DHT22;9914;51.008;4.300;2022-12-29T02:11:05;12.00;99.90
19538;DHT22;9914;51.008;4.300;2022-12-29T02:13:31;12.00;99.90
19538;DHT22;9914;51.008;4.300;2022-12-29T02:21:45;11.90;99.90
19538;DHT22;9914;51.008;4.300;2022-12-29T02:35:00;11.70;99.90
19538;DHT22;9914;51.008;4.300;2022-12-29T02:40:24;11.80;99.90
19538;DHT22;9914;51.008;4.300;2022-12-29T02:46:10;11.70;99.90
19538;DHT22;9914;51.008;4.300;2022-12-29T02:48:52;11.70;99.90
19538;DHT22;9914;51.008;4.300;2022-12-29T02:51:50;11.70;99.90
19538;DHT22;9914;51.008;4.300;2022-12-29T02:54:18;11.70;99.90
19538;DHT22;9914;51.008;4.300;2022-12-29T02:57:03;11.60;99.90
19538;DHT22;9914;51.008;4.300;2022-12-29T02:59:28;11.60;99.90
19538;DHT22;9914;51.008;4.300;2022-12-29T03:07:54;11.60;99.90
19538;DHT22;9914;51.008;4.300;2022-12-29T03:10:37;11.60;99.90
19538;DHT22;9914;51.008;4.300;2022-12-29T03:16:20;11.50;99.90
19538;DHT22;9914;51.008;4.300;2022-12-29T03:18:49;11.40;99.90
19538;DHT22;9914;51.008;4.300;2022-12-29T03:24:13;11.30;99.90
19538;DHT22;9914;51.008;4.300;2022-12-29T03:26:41;11.30;99.90
19538;DHT22;9914;51.008;4.300;2022-12-29T03:29:07;11.20;99.90
19538;DHT22;9914;51.008;4.300;2022-12-29T03:31:35;11.20;99.90
19538;DHT22;9914;51.008;4.300;2022-12-29T03:34:03;11.20;99.90
19538;DHT22;9914;51.008;4.300;2022-12-29T03:36:49;11.10;99.90
19538;DHT22;9914;51.008;4.300;2022-12-29T03:39:18;11.10;99.90
19538;DHT22;9914;51.008;4.300;2022-12-29T03:41:46;11.20;99.90
19538;DHT22;9914;51.008;4.300;2022-12-29T03:44:14;11.20;99.90
19538;DHT22;9914;51.008;4.300;2022-12-29T03:46:39;11.20;99.90
19538;DHT22;9914;51.008;4.300;2022-12-29T03:49:05;11.10;99.90
19538;DHT22;9914;51.008;4.300;2022-12-29T03:51:31;11.10;99.90
19538;DHT22;9914;51.008;4.300;2022-12-29T03:53:56;11.10;99.90
19538;DHT22;9914;51.008;4.300;2022-12-29T03:56:22;11.10;99.90
19538;DHT22;9914;51.008;4.300;2022-12-29T03:58:47;11.10;99.90
19538;DHT22;9914;51.008;4.300;2022-12-29T04:01:13;11.10;99.90
19538;DHT22;9914;51.008;4.300;2022-12-29T04:03:38;11.00;99.90
19538;DHT22;9914;51.008;4.300;2022-12-29T04:06:04;11.00;99.90
19538;DHT22;9914;51.008;4.300;2022-12-29T04:08:30;11.00;99.90
19538;DHT22;9914;51.008;4.300;2022-12-29T04:10:55;11.00;99.90
19538;DHT22;9914;51.008;4.300;2022-12-29T04:13:21;11.00;99.90
19538;DHT22;9914;51.008;4.300;2022-12-29T04:15:47;11.10;99.90
19538;DHT22;9914;51.008;4.300;2022-12-29T04:18:13;11.00;99.90
19538;DHT22;9914;51.008;4.300;2022-12-29T04:20:38;11.00;99.90
19538;DHT22;9914;51.008;4.300;2022-12-29T04:23:22;10.90;99.90
19538;DHT22;9914;51.008;4.300;2022-12-29T04:25:48;11.00;99.90
19538;DHT22;9914;51.008;4.300;2022-12-29T04:28:14;11.10;99.90
19538;DHT22;9914;51.008;4.300;2022-12-29T04:30:40;11.00;99.90
19538;DHT22;9914;51.008;4.300;2022-12-29T04:33:06;11.00;99.90
19538;DHT22;9914;51.008;4.300;2022-12-29T04:35:31;11.00;99.90
19538;DHT22;9914;51.008;4.300;2022-12-29T04:37:57;11.20;99.90
19538;DHT22;9914;51.008;4.300;2022-12-29T04:40:22;11.10;99.90
19538;DHT22;9914;51.008;4.300;2022-12-29T04:42:49;11.20;99.90
19538;DHT22;9914;51.008;4.300;2022-12-29T04:45:15;11.20;99.90
19538;DHT22;9914;51.008;4.300;2022-12-29T04:47:40;11.30;99.90
19538;DHT22;9914;51.008;4.300;2022-12-29T04:50:06;11.20;99.90
19538;DHT22;9914;51.008;4.300;2022-12-29T04:52:32;11.20;99.90
19538;DHT22;9914;51.008;4.300;2022-12-29T04:54:57;11.20;99.90
19538;DHT22;9914;51.008;4.300;2022-12-29T04:57:23;11.20;99.90
19538;DHT22;9914;51.008;4.300;2022-12-29T04:59:49;11.20;99.90
19538;DHT22;9914;51.008;4.300;2022-12-29T05:02:15;11.20;99.90
19538;DHT22;9914;51.008;4.300;2022-12-29T05:04:41;11.20;99.90
19538;DHT22;9914;51.008;4.300;2022-12-29T05:07:07;11.10;99.90
19538;DHT22;9914;51.008;4.300;2022-12-29T05:09:32;11.10;99.90
19538;DHT22;9914;51.008;4.300;2022-12-29T05:11:58;11.20;99.90
19538;DHT22;9914;51.008;4.300;2022-12-29T05:14:24;11.20;99.90
19538;DHT22;9914;51.008;4.300;2022-12-29T05:16:49;11.20;99.90
19538;DHT22;9914;51.008;4.300;2022-12-29T05:19:15;11.30;99.90
19538;DHT22;9914;51.008;4.300;2022-12-29T05:21:42;11.30;99.90
19538;DHT22;9914;51.008;4.300;2022-12-29T05:24:07;11.30;99.90
19538;DHT22;9914;51.008;4.300;2022-12-29T05:26:33;11.20;99.90
19538;DHT22;9914;51.008;4.300;2022-12-29T05:28:59;11.30;99.90
19538;DHT22;9914;51.008;4.300;2022-12-29T05:31:25;11.30;99.90
19538;DHT22;9914;51.008;4.300;2022-12-29T05:33:50;11.40;99.90
19538;DHT22;9914;51.008;4.300;2022-12-29T05:36:16;11.20;99.90
19538;DHT22;9914;51.008;4.300;2022-12-29T05:38:42;11.20;99.90
19538;DHT22;9914;51.008;4.300;2022-12-29T05:41:07;11.20;99.90
19538;DHT22;9914;51.008;4.300;2022-12-29T05:43:33;11.30;99.90
19538;DHT22;9914;51.008;4.300;2022-12-29T05:45:59;11.30;99.90
19538;DHT22;9914;51.008;4.300;2022-12-29T05:48:25;11.30;99.90
19538;DHT22;9914;51.008;4.300;2022-12-29T05:50:51;11.30;99.90
19538;DHT22;9914;51.008;4.300;2022-12-29T05:53:17;11.30;99.90
19538;DHT22;9914;51.008;4.300;2022-12-29T05:55:44;11.30;99.90
19538;DHT22;9914;51.008;4.300;2022-12-29T05:58:10;11.30;99.90
19538;DHT22;9914;51.008;4.300;2022-12-29T06:00:36;11.30;99.90
19538;DHT22;9914;51.008;4.300;2022-12-29T06:03:01;11.30;99.90
19538;DHT22;9914;51.008;4.300;2022-12-29T06:05:27;11.30;99.90
19538;DHT22;9914;51.008;4.300;2022-12-29T06:07:53;11.30;99.90
19538;DHT22;9914;51.008;4.300;2022-12-29T06:10:18;11.30;99.90
19538;DHT22;9914;51.008;4.300;2022-12-29T06:12:44;11.30;99.90
19538;DHT22;9914;51.008;4.300;2022-12-29T06:15:10;11.30;99.90
19538;DHT22;9914;51.008;4.300;2022-12-29T06:17:35;11.30;99.90
19538;DHT22;9914;51.008;4.300;2022-12-29T06:20:02;11.30;99.90
19538;DHT22;9914;51.008;4.300;2022-12-29T06:22:27;11.40;99.90
19538;DHT22;9914;51.008;4.300;2022-12-29T06:24:53;11.30;99.90
19538;DHT22;9914;51.008;4.300;2022-12-29T06:27:18;11.30;99.90
19538;DHT22;9914;51.008;4.300;2022-12-29T06:29:44;11.30;99.90
19538;DHT22;9914;51.008;4.300;2022-12-29T06:32:10;11.30;99.90
19538;DHT22;9914;51.008;4.300;2022-12-29T06:34:35;11.30;99.90
19538;DHT22;9914;51.008;4.300;2022-12-29T06:37:02;11.40;99.90
19538;DHT22;9914;51.008;4.300;2022-12-29T06:39:28;11.40;99.90
19538;DHT22;9914;51.008;4.300;2022-12-29T06:41:54;11.40;99.90
19538;DHT22;9914;51.008;4.300;2022-12-29T06:44:20;11.40;99.90
19538;DHT22;9914;51.008;4.300;2022-12-29T06:46:47;11.50;99.90
19538;DHT22;9914;51.008;4.300;2022-12-29T06:49:12;11.50;99.90
19538;DHT22;9914;51.008;4.300;2022-12-29T06:51:38;11.50;99.90
19538;DHT22;9914;51.008;4.300;2022-12-29T06:54:04;11.50;99.90
19538;DHT22;9914;51.008;4.300;2022-12-29T06:56:29;11.60;99.90
19538;DHT22;9914;51.008;4.300;2022-12-29T06:58:55;11.60;99.90
19538;DHT22;9914;51.008;4.300;2022-12-29T07:01:21;11.60;99.90
19538;DHT22;9914;51.008;4.300;2022-12-29T07:03:46;11.50;99.90
19538;DHT22;9914;51.008;4.300;2022-12-29T07:06:12;11.50;99.90
19538;DHT22;9914;51.008;4.300;2022-12-29T07:08:38;11.50;99.90
19538;DHT22;9914;51.008;4.300;2022-12-29T07:11:04;11.40;99.90
19538;DHT22;9914;51.008;4.300;2022-12-29T07:13:30;11.40;99.90
19538;DHT22;9914;51.008;4.300;2022-12-29T07:15:56;11.40;99.90
19538;DHT22;9914;51.008;4.300;2022-12-29T07:18:21;11.50;99.90
19538;DHT22;9914;51.008;4.300;2022-12-29T07:20:47;11.50;99.90
19538;DHT22;9914;51.008;4.300;2022-12-29T07:23:13;11.50;99.90
19538;DHT22;9914;51.008;4.300;2022-12-29T07:25:39;11.50;99.90
19538;DHT22;9914;51.008;4.300;2022-12-29T07:28:06;11.50;99.90
19538;DHT22;9914;51.008;4.300;2022-12-29T07:30:32;11.50;99.90
19538;DHT22;9914;51.008;4.300;2022-12-29T07:32:58;11.50;99.90
19538;DHT22;9914;51.008;4.300;2022-12-29T07:35:24;11.50;99.90
19538;DHT22;9914;51.008;4.300;2022-12-29T07:37:49;11.60;99.90
19538;DHT22;9914;51.008;4.300;2022-12-29T07:40:15;11.60;99.90
19538;DHT22;9914;51.008;4.300;2022-12-29T07:42:41;11.60;99.90
19538;DHT22;9914;51.008;4.300;2022-12-29T07:45:07;11.60;99.90
19538;DHT22;9914;51.008;4.300;2022-12-29T07:47:34;11.60;99.90
19538;DHT22;9914;51.008;4.300;2022-12-29T07:50:00;11.50;99.90
19538;DHT22;9914;51.008;4.300;2022-12-29T07:52:26;11.60;99.90
19538;DHT22;9914;51.008;4.300;2022-12-29T07:54:51;11.60;99.90
19538;DHT22;9914;51.008;4.300;2022-12-29T07:57:17;11.60;99.90
19538;DHT22;9914;51.008;4.300;2022-12-29T07:59:42;11.60;99.90
19538;DHT22;9914;51.008;4.300;2022-12-29T08:02:11;11.50;99.90
19538;DHT22;9914;51.008;4.300;2022-12-29T08:04:37;11.70;99.90
19538;DHT22;9914;51.008;4.300;2022-12-29T08:07:03;11.70;99.90
19538;DHT22;9914;51.008;4.300;2022-12-29T08:09:28;11.70;99.90
19538;DHT22;9914;51.008;4.300;2022-12-29T08:11:54;11.60;99.90
19538;DHT22;9914;51.008;4.300;2022-12-29T08:14:20;11.60;99.90
19538;DHT22;9914;51.008;4.300;2022-12-29T08:16:46;11.60;99.90
19538;DHT22;9914;51.008;4.300;2022-12-29T08:19:12;11.60;99.90
19538;DHT22;9914;51.008;4.300;2022-12-29T08:21:38;11.60;99.90
19538;DHT22;9914;51.008;4.300;2022-12-29T08:24:05;11.50;99.90
19538;DHT22;9914;51.008;4.300;2022-12-29T08:26:31;11.50;99.90
19538;DHT22;9914;51.008;4.300;2022-12-29T08:28:56;11.50;99.90
19538;DHT22;9914;51.008;4.300;2022-12-29T08:31:23;11.50;99.90
19538;DHT22;9914;51.008;4.300;2022-12-29T08:33:49;11.40;99.90
19538;DHT22;9914;51.008;4.300;2022-12-29T08:36:15;11.50;99.90
19538;DHT22;9914;51.008;4.300;2022-12-29T08:38:40;11.40;99.90
19538;DHT22;9914;51.008;4.300;2022-12-29T08:41:06;11.50;99.90
19538;DHT22;9914;51.008;4.300;2022-12-29T08:43:31;11.50;99.90
19538;DHT22;9914;51.008;4.300;2022-12-29T08:45:58;11.50;99.90
19538;DHT22;9914;51.008;4.300;2022-12-29T08:48:24;11.50;99.90
19538;DHT22;9914;51.008;4.300;2022-12-29T08:50:50;11.40;99.90
19538;DHT22;9914;51.008;4.300;2022-12-29T08:53:16;11.20;99.90
19538;DHT22;9914;51.008;4.300;2022-12-29T08:55:54;11.30;99.90
19538;DHT22;9914;51.008;4.300;2022-12-29T08:58:19;11.20;99.90
19538;DHT22;9914;51.008;4.300;2022-12-29T09:00:45;11.10;99.90
19538;DHT22;9914;51.008;4.300;2022-12-29T09:03:10;11.20;99.90
19538;DHT22;9914;51.008;4.300;2022-12-29T09:05:36;11.20;99.90
19538;DHT22;9914;51.008;4.300;2022-12-29T09:08:02;11.10;99.90
19538;DHT22;9914;51.008;4.300;2022-12-29T09:10:28;11.20;99.90
19538;DHT22;9914;51.008;4.300;2022-12-29T09:12:53;11.20;99.90
19538;DHT22;9914;51.008;4.300;2022-12-29T09:15:19;11.10;99.90
19538;DHT22;9914;51.008;4.300;2022-12-29T09:17:45;11.00;99.90
19538;DHT22;9914;51.008;4.300;2022-12-29T09:20:16;11.00;99.90
19538;DHT22;9914;51.008;4.300;2022-12-29T09:22:42;11.00;99.90
19538;DHT22;9914;51.008;4.300;2022-12-29T09:25:09;10.90;99.90
19538;DHT22;9914;51.008;4.300;2022-12-29T09:27:35;10.90;99.90
19538;DHT22;9914;51.008;4.300;2022-12-29T09:30:03;10.80;99.90
19538;DHT22;9914;51.008;4.300;2022-12-29T09:32:29;10.80;99.90
19538;DHT22;9914;51.008;4.300;2022-12-29T09:34:55;10.70;99.90
19538;DHT22;9914;51.008;4.300;2022-12-29T09:37:20;10.80;99.90
19538;DHT22;9914;51.008;4.300;2022-12-29T09:39:46;10.90;99.90
19538;DHT22;9914;51.008;4.300;2022-12-29T09:47:34;10.90;99.90
19538;DHT22;9914;51.008;4.300;2022-12-29T09:50:05;10.90;99.90
19538;DHT22;9914;51.008;4.300;2022-12-29T09:52:42;10.90;99.90
19538;DHT22;9914;51.008;4.300;2022-12-29T09:55:19;10.90;99.90
19538;DHT22;9914;51.008;4.300;2022-12-29T09:57:56;10.90;99.90
19538;DHT22;9914;51.008;4.300;2022-12-29T10:00:41;11.00;99.90
19538;DHT22;9914;51.008;4.300;2022-12-29T10:03:21;10.90;99.90
19538;DHT22;9914;51.008;4.300;2022-12-29T10:22:24;11.20;99.90
19538;DHT22;9914;51.008;4.300;2022-12-29T10:24:42;11.30;99.90
19538;DHT22;9914;51.008;4.300;2022-12-29T10:27:13;11.30;99.90
19538;DHT22;9914;51.008;4.300;2022-12-29T10:29:45;11.40;99.90
19538;DHT22;9914;51.008;4.300;2022-12-29T10:32:36;11.50;99.90
19538;DHT22;9914;51.008;4.300;2022-12-29T10:35:14;11.60;99.90
19538;DHT22;9914;51.008;4.300;2022-12-29T10:37:58;11.60;99.90
19538;DHT22;9914;51.008;4.300;2022-12-29T10:40:43;11.60;99.90
19538;DHT22;9914;51.008;4.300;2022-12-29T10:43:26;11.80;99.90
19538;DHT22;9914;51.008;4.300;2022-12-29T10:45:54;11.70;99.90
19538;DHT22;9914;51.008;4.300;2022-12-29T10:48:27;11.70;99.90
19538;DHT22;9914;51.008;4.300;2022-12-29T10:50:56;11.80;99.90
19538;DHT22;9914;51.008;4.300;2022-12-29T10:53:26;11.90;99.90
19538;DHT22;9914;51.008;4.300;2022-12-29T10:55:53;12.00;99.90
19538;DHT22;9914;51.008;4.300;2022-12-29T10:58:20;11.90;99.90
19538;DHT22;9914;51.008;4.300;2022-12-29T11:00:51;11.90;99.90
19538;DHT22;9914;51.008;4.300;2022-12-29T11:03:48;12.00;99.90
19538;DHT22;9914;51.008;4.300;2022-12-29T11:06:26;11.90;99.90
19538;DHT22;9914;51.008;4.300;2022-12-29T11:08:54;11.90;99.90
19538;DHT22;9914;51.008;4.300;2022-12-29T11:11:27;11.90;99.90
19538;DHT22;9914;51.008;4.300;2022-12-29T11:16:33;12.10;99.90
19538;DHT22;9914;51.008;4.300;2022-12-29T11:19:00;12.10;99.90
19538;DHT22;9914;51.008;4.300;2022-12-29T11:21:38;12.10;99.90
19538;DHT22;9914;51.008;4.300;2022-12-29T11:24:28;12.00;99.90
19538;DHT22;9914;51.008;4.300;2022-12-29T11:27:08;11.90;99.90
19538;DHT22;9914;51.008;4.300;2022-12-29T11:29:41;12.00;99.90
19538;DHT22;9914;51.008;4.300;2022-12-29T11:32:19;12.10;99.90
19538;DHT22;9914;51.008;4.300;2022-12-29T11:34:45;12.20;99.90
19538;DHT22;9914;51.008;4.300;2022-12-29T11:37:58;12.20;99.90
19538;DHT22;9914;51.008;4.300;2022-12-29T11:42:50;12.20;99.90
19538;DHT22;9914;51.008;4.300;2022-12-29T11:47:55;12.30;99.90
19538;DHT22;9914;51.008;4.300;2022-12-29T11:50:25;12.20;99.90
19538;DHT22;9914;51.008;4.300;2022-12-29T11:52:59;12.30;99.90
19538;DHT22;9914;51.008;4.300;2022-12-29T11:55:26;12.10;99.90
19538;DHT22;9914;51.008;4.300;2022-12-29T11:57:53;12.00;99.90
19538;DHT22;9914;51.008;4.300;2022-12-29T12:00:23;12.00;99.90
19538;DHT22;9914;51.008;4.300;2022-12-29T12:03:13;11.90;99.90
19538;DHT22;9914;51.008;4.300;2022-12-29T12:05:47;12.00;99.90
19538;DHT22;9914;51.008;4.300;2022-12-29T12:08:36;12.00;99.90
19538;DHT22;9914;51.008;4.300;2022-12-29T12:11:21;12.10;99.90
19538;DHT22;9914;51.008;4.300;2022-12-29T12:14:04;12.10;99.90
19538;DHT22;9914;51.008;4.300;2022-12-29T12:16:33;12.00;99.90
19538;DHT22;9914;51.008;4.300;2022-12-29T12:22:27;12.20;99.90
19538;DHT22;9914;51.008;4.300;2022-12-29T12:24:59;12.40;99.90
19538;DHT22;9914;51.008;4.300;2022-12-29T12:27:37;12.40;99.90
19538;DHT22;9914;51.008;4.300;2022-12-29T12:30:16;12.10;99.90
19538;DHT22;9914;51.008;4.300;2022-12-29T12:33:05;11.90;99.90
19538;DHT22;9914;51.008;4.300;2022-12-29T12:38:55;11.80;99.90
19538;DHT22;9914;51.008;4.300;2022-12-29T12:41:49;11.90;99.90
19538;DHT22;9914;51.008;4.300;2022-12-29T12:44:35;12.00;99.90
19538;DHT22;9914;51.008;4.300;2022-12-29T12:49:55;12.00;99.90
19538;DHT22;9914;51.008;4.300;2022-12-29T12:52:30;12.00;99.90
19538;DHT22;9914;51.008;4.300;2022-12-29T13:00:21;12.30;99.90
19538;DHT22;9914;51.008;4.300;2022-12-29T13:03:05;12.10;99.90
19538;DHT22;9914;51.008;4.300;2022-12-29T13:06:12;12.10;99.90
19538;DHT22;9914;51.008;4.300;2022-12-29T13:22:21;12.20;99.90
19538;DHT22;9914;51.008;4.300;2022-12-29T13:25:15;12.20;99.90
19538;DHT22;9914;51.008;4.300;2022-12-29T13:28:03;12.10;99.90
19538;DHT22;9914;51.008;4.300;2022-12-29T13:30:45;12.10;99.90
19538;DHT22;9914;51.008;4.300;2022-12-29T13:36:10;11.90;99.90
19538;DHT22;9914;51.008;4.300;2022-12-29T13:38:43;11.70;99.90
19538;DHT22;9914;51.008;4.300;2022-12-29T13:41:13;11.70;99.90
19538;DHT22;9914;51.008;4.300;2022-12-29T13:43:43;11.70;99.90
19538;DHT22;9914;51.008;4.300;2022-12-29T13:46:13;11.70;99.90
19538;DHT22;9914;51.008;4.300;2022-12-29T13:48:51;11.60;99.90
19538;DHT22;9914;51.008;4.300;2022-12-29T13:51:21;11.70;99.90
19538;DHT22;9914;51.008;4.300;2022-12-29T14:04:57;11.40;99.90
19538;DHT22;9914;51.008;4.300;2022-12-29T14:07:23;11.20;99.90
19538;DHT22;9914;51.008;4.300;2022-12-29T14:09:54;10.90;99.90
19538;DHT22;9914;51.008;4.300;2022-12-29T14:14:51;10.70;99.90
19538;DHT22;9914;51.008;4.300;2022-12-29T14:17:20;10.60;99.90
19538;DHT22;9914;51.008;4.300;2022-12-29T14:19:46;10.40;99.90
19538;DHT22;9914;51.008;4.300;2022-12-29T14:22:12;10.30;99.90
19538;DHT22;9914;51.008;4.300;2022-12-29T14:24:45;10.00;99.90
19538;DHT22;9914;51.008;4.300;2022-12-29T14:34:53;10.00;99.90
19538;DHT22;9914;51.008;4.300;2022-12-29T14:37:29;9.90;99.90
19538;DHT22;9914;51.008;4.300;2022-12-29T14:40:18;9.70;99.90
19538;DHT22;9914;51.008;4.300;2022-12-29T14:42:46;9.70;99.90
19538;DHT22;9914;51.008;4.300;2022-12-29T14:47:51;9.80;99.90
19538;DHT22;9914;51.008;4.300;2022-12-29T14:50:23;9.80;99.90
19538;DHT22;9914;51.008;4.300;2022-12-29T14:52:56;9.80;99.90
19538;DHT22;9914;51.008;4.300;2022-12-29T14:55:47;9.80;99.90
19538;DHT22;9914;51.008;4.300;2022-12-29T14:58:46;9.80;99.90
19538;DHT22;9914;51.008;4.300;2022-12-29T15:04:14;9.90;99.90
19538;DHT22;9914;51.008;4.300;2022-12-29T15:06:41;9.90;99.90
19538;DHT22;9914;51.008;4.300;2022-12-29T15:09:30;9.90;99.90
19538;DHT22;9914;51.008;4.300;2022-12-29T15:12:17;10.00;99.90
19538;DHT22;9914;51.008;4.300;2022-12-29T15:14:56;10.00;99.90
19538;DHT22;9914;51.008;4.300;2022-12-29T15:17:31;10.00;99.90
19538;DHT22;9914;51.008;4.300;2022-12-29T15:19:59;10.00;99.90
19538;DHT22;9914;51.008;4.300;2022-12-29T15:22:26;10.10;99.90
19538;DHT22;9914;51.008;4.300;2022-12-29T15:24:53;10.00;99.90
19538;DHT22;9914;51.008;4.300;2022-12-29T15:27:25;9.90;99.90
19538;DHT22;9914;51.008;4.300;2022-12-29T15:30:03;9.90;99.90
19538;DHT22;9914;51.008;4.300;2022-12-29T15:32:40;9.90;99.90
19538;DHT22;9914;51.008;4.300;2022-12-29T15:35:33;9.90;99.90
19538;DHT22;9914;51.008;4.300;2022-12-29T15:38:00;9.80;99.90
19538;DHT22;9914;51.008;4.300;2022-12-29T15:40:32;9.80;99.90
19538;DHT22;9914;51.008;4.300;2022-12-29T15:45:34;9.90;99.90
19538;DHT22;9914;51.008;4.300;2022-12-29T15:48:00;9.90;99.90
19538;DHT22;9914;51.008;4.300;2022-12-29T15:50:34;9.80;99.90
19538;DHT22;9914;51.008;4.300;2022-12-29T15:53:01;9.80;99.90
19538;DHT22;9914;51.008;4.300;2022-12-29T15:55:35;9.80;99.90
19538;DHT22;9914;51.008;4.300;2022-12-29T15:58:03;9.80;99.90
19538;DHT22;9914;51.008;4.300;2022-12-29T16:00:34;9.70;99.90
19538;DHT22;9914;51.008;4.300;2022-12-29T16:03:03;9.70;99.90
19538;DHT22;9914;51.008;4.300;2022-12-29T16:05:38;9.70;99.90
19538;DHT22;9914;51.008;4.300;2022-12-29T16:08:21;9.70;99.90
19538;DHT22;9914;51.008;4.300;2022-12-29T16:10:47;9.70;99.90
19538;DHT22;9914;51.008;4.300;2022-12-29T16:13:33;9.70;99.90
19538;DHT22;9914;51.008;4.300;2022-12-29T16:16:02;9.60;99.90
19538;DHT22;9914;51.008;4.300;2022-12-29T16:18:35;9.60;99.90
19538;DHT22;9914;51.008;4.300;2022-12-29T16:21:04;9.60;99.90
19538;DHT22;9914;51.008;4.300;2022-12-29T16:23:31;9.60;99.90
19538;DHT22;9914;51.008;4.300;2022-12-29T16:25:58;9.60;99.90
19538;DHT22;9914;51.008;4.300;2022-12-29T16:28:35;9.60;99.90
19538;DHT22;9914;51.008;4.300;2022-12-29T16:31:13;9.40;99.90
19538;DHT22;9914;51.008;4.300;2022-12-29T16:33:47;9.40;99.90
19538;DHT22;9914;51.008;4.300;2022-12-29T16:36:33;9.30;99.90
19538;DHT22;9914;51.008;4.300;2022-12-29T16:41:52;9.20;99.90
19538;DHT22;9914;51.008;4.300;2022-12-29T16:44:19;9.20;99.90
19538;DHT22;9914;51.008;4.300;2022-12-29T16:49:39;9.20;99.90
19538;DHT22;9914;51.008;4.300;2022-12-29T16:52:13;9.10;99.90
19538;DHT22;9914;51.008;4.300;2022-12-29T16:54:40;9.20;99.90
19538;DHT22;9914;51.008;4.300;2022-12-29T16:57:07;9.20;99.90
19538;DHT22;9914;51.008;4.300;2022-12-29T16:59:34;9.10;99.90
19538;DHT22;9914;51.008;4.300;2022-12-29T17:02:12;9.10;99.90
19538;DHT22;9914;51.008;4.300;2022-12-29T17:04:39;9.10;99.90
19538;DHT22;9914;51.008;4.300;2022-12-29T17:07:17;9.10;99.90
19538;DHT22;9914;51.008;4.300;2022-12-29T17:09:43;9.10;99.90
19538;DHT22;9914;51.008;4.300;2022-12-29T17:12:13;9.00;99.90
19538;DHT22;9914;51.008;4.300;2022-12-29T17:15:00;9.00;99.90
19538;DHT22;9914;51.008;4.300;2022-12-29T17:17:36;9.00;99.90
19538;DHT22;9914;51.008;4.300;2022-12-29T17:20:08;9.10;99.90
19538;DHT22;9914;51.008;4.300;2022-12-29T17:22:39;9.10;99.90
19538;DHT22;9914;51.008;4.300;2022-12-29T17:25:04;9.10;99.90
19538;DHT22;9914;51.008;4.300;2022-12-29T17:27:35;9.10;99.90
19538;DHT22;9914;51.008;4.300;2022-12-29T17:30:25;9.20;99.90
19538;DHT22;9914;51.008;4.300;2022-12-29T17:32:58;9.30;99.90
19538;DHT22;9914;51.008;4.300;2022-12-29T17:35:24;9.20;99.90
19538;DHT22;9914;51.008;4.300;2022-12-29T17:37:51;9.10;99.90
19538;DHT22;9914;51.008;4.300;2022-12-29T17:40:23;9.10;99.90
19538;DHT22;9914;51.008;4.300;2022-12-29T17:42:51;9.10;99.90
19538;DHT22;9914;51.008;4.300;2022-12-29T17:45:27;9.10;99.90
19538;DHT22;9914;51.008;4.300;2022-12-29T17:47:54;9.10;99.90
19538;DHT22;9914;51.008;4.300;2022-12-29T17:50:24;9.20;99.90
19538;DHT22;9914;51.008;4.300;2022-12-29T17:55:20;9.20;99.90
19538;DHT22;9914;51.008;4.300;2022-12-29T17:57:46;9.20;99.90
19538;DHT22;9914;51.008;4.300;2022-12-29T18:00:24;9.20;99.90
19538;DHT22;9914;51.008;4.300;2022-12-29T18:02:53;9.30;99.90
19538;DHT22;9914;51.008;4.300;2022-12-29T18:05:22;9.20;99.90
19538;DHT22;9914;51.008;4.300;2022-12-29T18:07:51;9.20;99.90
19538;DHT22;9914;51.008;4.300;2022-12-29T18:10:17;9.10;99.90
19538;DHT22;9914;51.008;4.300;2022-12-29T18:12:45;9.20;99.90
19538;DHT22;9914;51.008;4.300;2022-12-29T18:17:43;9.10;99.90
19538;DHT22;9914;51.008;4.300;2022-12-29T18:20:09;9.00;99.90
19538;DHT22;9914;51.008;4.300;2022-12-29T18:22:34;9.00;99.90
19538;DHT22;9914;51.008;4.300;2022-12-29T18:25:00;9.10;99.90
19538;DHT22;9914;51.008;4.300;2022-12-29T18:27:27;9.00;99.90